createdAt,value
2023-02-23T00:00:11.957Z,15.70
2023-02-23T00:01:11.942Z,15.60
2023-02-23T00:02:11.923Z,14.40
2023-02-23T00:03:12.004Z,14.10
2023-02-23T00:04:11.905Z,14.20
2023-02-23T00:05:11.894Z,14.20
2023-02-23T00:06:11.871Z,15.20
2023-02-23T00:07:11.860Z,14.70
2023-02-23T00:08:11.850Z,15.00
2023-02-23T00:09:11.833Z,17.50
2023-02-23T00:10:11.824Z,16.50
2023-02-23T00:11:11.811Z,16.00
2023-02-23T00:12:11.805Z,16.40
2023-02-23T00:13:11.804Z,15.50
2023-02-23T00:14:11.760Z,15.20
2023-02-23T00:15:11.749Z,15.00
2023-02-23T00:16:11.755Z,15.80
2023-02-23T00:17:11.740Z,16.20
2023-02-23T00:18:11.714Z,16.40
2023-02-23T00:19:11.748Z,17.80
2023-02-23T00:20:11.695Z,16.60
2023-02-23T00:21:11.681Z,17.80
2023-02-23T00:22:11.668Z,15.90
2023-02-23T00:23:11.667Z,16.30
2023-02-23T00:24:11.653Z,16.30
2023-02-23T00:25:11.630Z,16.50
2023-02-23T00:26:11.606Z,16.00
2023-02-23T00:27:11.618Z,16.00
2023-02-23T00:28:11.588Z,16.60
2023-02-23T00:29:11.587Z,17.10
2023-02-23T00:30:11.563Z,16.40
2023-02-23T00:31:11.602Z,16.20
2023-02-23T00:32:11.639Z,17.50
2023-02-23T00:33:11.535Z,17.20
2023-02-23T00:34:11.546Z,16.80
2023-02-23T00:35:11.511Z,15.70
2023-02-23T00:36:11.502Z,13.90
2023-02-23T00:37:11.482Z,14.20
2023-02-23T00:38:11.465Z,14.70
2023-02-23T00:39:11.471Z,15.40
2023-02-23T00:40:11.434Z,15.20
2023-02-23T00:41:13.540Z,14.10
2023-02-23T00:42:11.409Z,15.20
2023-02-23T00:43:11.408Z,15.50
2023-02-23T00:44:11.404Z,14.50
2023-02-23T00:45:11.371Z,14.70
2023-02-23T00:46:11.377Z,14.50
2023-02-23T00:47:11.358Z,15.50
2023-02-23T00:48:11.339Z,14.70
2023-02-23T00:49:11.350Z,14.90
2023-02-23T00:50:11.300Z,15.60
2023-02-23T00:51:11.293Z,15.20
2023-02-23T00:52:11.279Z,15.70
2023-02-23T00:53:11.655Z,16.10
2023-02-23T00:54:11.279Z,15.90
2023-02-23T00:55:11.240Z,16.00
2023-02-23T00:56:11.228Z,15.80
2023-02-23T00:57:11.224Z,16.50
2023-02-23T00:58:11.200Z,17.20
2023-02-23T00:59:11.208Z,16.60
2023-02-23T01:00:11.173Z,15.80
2023-02-23T01:01:11.242Z,14.90
2023-02-23T01:02:11.189Z,15.50
2023-02-23T01:03:11.137Z,15.50
2023-02-23T01:04:11.143Z,15.00
2023-02-23T01:05:11.131Z,14.40
2023-02-23T01:06:11.105Z,14.90
2023-02-23T01:07:11.076Z,15.70
2023-02-23T01:08:11.063Z,15.60
2023-02-23T01:09:11.084Z,16.20
2023-02-23T01:10:11.048Z,16.40
2023-02-23T01:11:11.031Z,15.60
2023-02-23T01:12:11.022Z,16.20
2023-02-23T01:13:10.990Z,16.40
2023-02-23T01:14:11.027Z,16.40
2023-02-23T01:15:10.971Z,16.00
2023-02-23T01:16:10.970Z,15.80
2023-02-23T01:17:10.959Z,16.30
2023-02-23T01:18:10.941Z,15.50
2023-02-23T01:19:10.949Z,16.20
2023-02-23T01:20:10.916Z,15.50
2023-02-23T01:21:10.918Z,14.10
2023-02-23T01:22:10.888Z,14.80
2023-02-23T01:23:10.880Z,15.40
2023-02-23T01:24:10.876Z,14.80
2023-02-23T01:25:10.848Z,15.10
2023-02-23T01:26:10.838Z,15.30
2023-02-23T01:27:10.820Z,15.60
2023-02-23T01:28:10.813Z,16.00
2023-02-23T01:29:10.836Z,16.50
2023-02-23T01:30:10.784Z,17.60
2023-02-23T01:31:10.882Z,17.80
2023-02-23T01:32:10.850Z,16.20
2023-02-23T01:33:10.737Z,15.70
2023-02-23T01:34:10.746Z,16.70
2023-02-23T01:35:10.707Z,17.20
2023-02-23T01:36:10.699Z,15.90
2023-02-23T01:37:10.683Z,16.60
2023-02-23T01:38:10.672Z,16.30
2023-02-23T01:39:10.692Z,15.90
2023-02-23T01:40:10.642Z,15.80
2023-02-23T01:41:10.624Z,15.30
2023-02-23T01:42:10.613Z,16.00
2023-02-23T01:43:10.604Z,16.00
2023-02-23T01:44:10.612Z,17.00
2023-02-23T01:45:10.573Z,17.20
2023-02-23T01:46:10.629Z,16.80
2023-02-23T01:47:10.555Z,17.70
2023-02-23T01:48:10.563Z,18.20
2023-02-23T01:49:10.540Z,17.80
2023-02-23T01:50:10.512Z,18.80
2023-02-23T01:51:10.509Z,20.20
2023-02-23T01:52:10.503Z,21.00
2023-02-23T01:53:10.485Z,21.30
2023-02-23T01:54:10.483Z,21.20
2023-02-23T01:55:10.450Z,22.00
2023-02-23T01:56:10.444Z,22.80
2023-02-23T01:57:10.454Z,22.30
2023-02-23T01:58:10.412Z,21.40
2023-02-23T01:59:10.403Z,20.90
2023-02-23T02:00:10.392Z,23.40
2023-02-23T02:01:10.404Z,22.80
2023-02-23T02:02:10.350Z,22.60
2023-02-23T02:03:10.352Z,24.00
2023-02-23T02:04:10.384Z,24.90
2023-02-23T02:05:10.322Z,25.40
2023-02-23T02:06:10.311Z,22.80
2023-02-23T02:07:10.288Z,22.40
2023-02-23T02:08:10.280Z,22.50
2023-02-23T02:09:10.297Z,20.40
2023-02-23T02:10:10.261Z,20.10
2023-02-23T02:11:10.228Z,20.60
2023-02-23T02:12:10.231Z,19.50
2023-02-23T02:13:10.208Z,18.80
2023-02-23T02:14:10.209Z,20.00
2023-02-23T02:15:10.194Z,18.10
2023-02-23T02:16:10.212Z,18.10
2023-02-23T02:17:10.160Z,18.00
2023-02-23T02:18:10.159Z,18.50
2023-02-23T02:19:10.130Z,20.20
2023-02-23T02:20:10.149Z,19.30
2023-02-23T02:21:10.154Z,18.90
2023-02-23T02:22:10.100Z,18.20
2023-02-23T02:23:10.081Z,17.40
2023-02-23T02:24:10.068Z,17.90
2023-02-23T02:25:10.130Z,18.50
2023-02-23T02:26:10.068Z,19.50
2023-02-23T02:27:10.024Z,18.00
2023-02-23T02:28:10.019Z,18.00
2023-02-23T02:29:10.007Z,17.40
2023-02-23T02:30:10.013Z,19.30
2023-02-23T02:31:10.016Z,16.90
2023-02-23T02:32:10.003Z,17.00
2023-02-23T02:33:09.949Z,19.50
2023-02-23T02:34:09.936Z,20.10
2023-02-23T02:35:09.936Z,19.20
2023-02-23T02:36:09.913Z,17.70
2023-02-23T02:37:09.890Z,20.10
2023-02-23T02:38:09.884Z,19.70
2023-02-23T02:39:09.872Z,18.50
2023-02-23T02:40:09.864Z,23.40
2023-02-23T02:41:09.834Z,21.10
2023-02-23T02:42:09.833Z,22.00
2023-02-23T02:43:09.819Z,19.90
2023-02-23T02:44:09.803Z,20.00
2023-02-23T02:45:09.802Z,20.50
2023-02-23T02:46:10.007Z,21.10
2023-02-23T02:47:09.765Z,21.00
2023-02-23T02:48:09.768Z,22.50
2023-02-23T02:49:09.745Z,19.40
2023-02-23T02:50:09.744Z,20.20
2023-02-23T02:51:09.727Z,21.10
2023-02-23T02:52:09.713Z,22.10
2023-02-23T02:53:09.699Z,23.90
2023-02-23T02:54:09.676Z,22.90
2023-02-23T02:55:09.675Z,22.50
2023-02-23T02:56:09.665Z,20.30
2023-02-23T02:57:09.634Z,21.40
2023-02-23T02:58:09.624Z,20.70
2023-02-23T02:59:09.616Z,19.80
2023-02-23T03:00:09.628Z,18.30
2023-02-23T03:01:09.632Z,18.00
2023-02-23T03:02:09.574Z,17.60
2023-02-23T03:03:09.553Z,19.40
2023-02-23T03:04:09.558Z,18.60
2023-02-23T03:05:09.560Z,16.30
2023-02-23T03:06:09.528Z,16.10
2023-02-23T03:07:09.507Z,17.80
2023-02-23T03:08:09.549Z,17.40
2023-02-23T03:09:09.483Z,19.50
2023-02-23T03:10:09.490Z,19.40
2023-02-23T03:11:09.455Z,18.60
2023-02-23T03:12:09.457Z,16.80
2023-02-23T03:13:09.424Z,17.20
2023-02-23T03:14:09.428Z,17.00
2023-02-23T03:15:09.403Z,17.50
2023-02-23T03:16:09.485Z,16.80
2023-02-23T03:17:09.388Z,16.00
2023-02-23T03:18:09.627Z,15.30
2023-02-23T03:19:09.352Z,16.50
2023-02-23T03:20:09.350Z,17.20
2023-02-23T03:21:09.337Z,18.20
2023-02-23T03:22:09.311Z,17.20
2023-02-23T03:23:09.302Z,22.60
2023-02-23T03:24:09.282Z,21.10
2023-02-23T03:25:09.492Z,19.90
2023-02-23T03:26:09.293Z,19.30
2023-02-23T03:27:09.250Z,18.80
2023-02-23T03:28:09.242Z,19.50
2023-02-23T03:29:09.222Z,19.10
2023-02-23T03:30:09.211Z,18.70
2023-02-23T03:31:09.209Z,19.30
2023-02-23T03:32:09.392Z,17.20
2023-02-23T03:33:09.176Z,17.20
2023-02-23T03:34:09.172Z,16.40
2023-02-23T03:35:09.141Z,14.80
2023-02-23T03:36:09.148Z,14.30
2023-02-23T03:37:09.127Z,14.40
2023-02-23T03:38:09.111Z,15.10
2023-02-23T03:39:09.090Z,14.90
2023-02-23T03:40:09.078Z,17.00
2023-02-23T03:41:09.082Z,16.20
2023-02-23T03:42:09.065Z,16.40
2023-02-23T03:43:09.037Z,16.30
2023-02-23T03:44:09.040Z,14.90
2023-02-23T03:45:09.092Z,15.30
2023-02-23T03:46:09.008Z,14.60
2023-02-23T03:47:08.991Z,14.40
2023-02-23T03:48:08.991Z,13.70
2023-02-23T03:49:08.959Z,14.10
2023-02-23T03:50:08.959Z,13.30
2023-02-23T03:51:08.938Z,12.90
2023-02-23T03:52:08.932Z,14.20
2023-02-23T03:53:08.922Z,14.80
2023-02-23T03:54:08.905Z,15.70
2023-02-23T03:55:08.875Z,16.00
2023-02-23T03:56:08.887Z,15.30
2023-02-23T03:57:08.919Z,15.10
2023-02-23T03:58:08.849Z,15.70
2023-02-23T03:59:08.840Z,14.50
2023-02-23T04:00:08.823Z,14.40
2023-02-23T04:01:08.821Z,17.20
2023-02-23T04:02:08.825Z,16.20
2023-02-23T04:03:08.773Z,13.90
2023-02-23T04:04:08.833Z,14.60
2023-02-23T04:05:08.762Z,13.70
2023-02-23T04:06:08.759Z,16.80
2023-02-23T04:07:08.720Z,17.00
2023-02-23T04:08:08.723Z,16.30
2023-02-23T04:09:08.700Z,19.10
2023-02-23T04:10:08.693Z,18.30
2023-02-23T04:11:08.696Z,19.10
2023-02-23T04:12:08.680Z,17.20
2023-02-23T04:13:08.638Z,16.00
2023-02-23T04:14:08.644Z,16.00
2023-02-23T04:15:08.631Z,18.50
2023-02-23T04:16:08.679Z,16.50
2023-02-23T04:17:08.596Z,17.40
2023-02-23T04:18:08.590Z,17.30
2023-02-23T04:19:08.581Z,16.20
2023-02-23T04:20:08.577Z,18.60
2023-02-23T04:21:08.601Z,17.00
2023-02-23T04:22:08.536Z,24.90
2023-02-23T04:23:08.525Z,25.70
2023-02-23T04:24:08.507Z,22.90
2023-02-23T04:25:08.508Z,21.90
2023-02-23T04:26:08.489Z,19.70
2023-02-23T04:27:08.460Z,18.70
2023-02-23T04:28:08.472Z,18.50
2023-02-23T04:29:08.460Z,17.30
2023-02-23T04:30:08.430Z,17.00
2023-02-23T04:31:08.427Z,15.60
2023-02-23T04:32:08.467Z,15.80
2023-02-23T04:33:08.417Z,15.80
2023-02-23T04:34:08.388Z,15.60
2023-02-23T04:35:08.367Z,15.70
2023-02-23T04:36:08.378Z,17.20
2023-02-23T04:37:08.341Z,19.70
2023-02-23T04:38:08.330Z,18.00
2023-02-23T04:39:08.344Z,17.20
2023-02-23T04:40:08.351Z,16.80
2023-02-23T04:41:08.290Z,18.30
2023-02-23T04:42:08.288Z,18.20
2023-02-23T04:43:08.257Z,19.80
2023-02-23T04:44:08.248Z,21.80
2023-02-23T04:45:08.249Z,22.30
2023-02-23T04:46:08.262Z,21.80
2023-02-23T04:47:08.222Z,21.40
2023-02-23T04:48:08.198Z,22.20
2023-02-23T04:49:08.178Z,23.90
2023-02-23T04:50:08.167Z,23.50
2023-02-23T04:51:08.167Z,26.10
2023-02-23T04:52:08.170Z,23.70
2023-02-23T04:53:08.145Z,21.00
2023-02-23T04:54:08.128Z,20.70
2023-02-23T04:55:08.117Z,20.40
2023-02-23T04:56:08.100Z,21.10
2023-02-23T04:57:08.085Z,24.40
2023-02-23T04:58:08.095Z,26.80
2023-02-23T04:59:08.061Z,26.70
2023-02-23T05:00:08.052Z,26.00
2023-02-23T05:01:08.102Z,23.10
2023-02-23T05:02:08.025Z,22.50
2023-02-23T05:03:08.013Z,22.40
2023-02-23T05:04:07.996Z,21.80
2023-02-23T05:05:08.075Z,20.60
2023-02-23T05:06:07.985Z,20.30
2023-02-23T05:07:07.968Z,19.40
2023-02-23T05:08:07.940Z,19.10
2023-02-23T05:09:07.932Z,17.90
2023-02-23T05:10:07.918Z,18.50
2023-02-23T05:11:07.895Z,18.70
2023-02-23T05:12:07.915Z,18.70
2023-02-23T05:13:07.879Z,19.00
2023-02-23T05:14:07.863Z,19.70
2023-02-23T05:15:07.862Z,19.00
2023-02-23T05:16:07.872Z,19.00
2023-02-23T05:17:08.811Z,19.90
2023-02-23T05:18:07.816Z,20.00
2023-02-23T05:19:07.792Z,18.80
2023-02-23T05:20:07.880Z,19.00
2023-02-23T05:21:07.784Z,19.00
2023-02-23T05:22:07.765Z,18.20
2023-02-23T05:23:07.752Z,18.20
2023-02-23T05:24:07.737Z,18.30
2023-02-23T05:25:07.724Z,17.10
2023-02-23T05:26:07.719Z,19.30
2023-02-23T05:27:07.724Z,17.40
2023-02-23T05:28:07.684Z,20.20
2023-02-23T05:29:07.724Z,19.10
2023-02-23T05:30:07.686Z,19.00
2023-02-23T05:31:07.773Z,19.70
2023-02-23T05:32:07.731Z,19.20
2023-02-23T05:33:07.621Z,19.80
2023-02-23T05:34:07.610Z,19.40
2023-02-23T05:35:07.621Z,19.10
2023-02-23T05:36:07.581Z,18.60
2023-02-23T05:37:07.578Z,18.00
2023-02-23T05:38:07.566Z,17.60
2023-02-23T05:39:07.588Z,18.40
2023-02-23T05:40:07.532Z,17.80
2023-02-23T05:41:07.522Z,19.30
2023-02-23T05:42:07.529Z,20.00
2023-02-23T05:43:07.524Z,18.50
2023-02-23T05:44:07.468Z,17.90
2023-02-23T05:45:07.467Z,18.20
2023-02-23T05:46:07.454Z,17.40
2023-02-23T05:47:07.465Z,21.90
2023-02-23T05:48:07.418Z,17.40
2023-02-23T05:49:07.423Z,17.50
2023-02-23T05:50:07.423Z,17.50
2023-02-23T05:51:07.391Z,17.80
2023-02-23T05:52:07.365Z,17.80
2023-02-23T05:53:07.371Z,17.20
2023-02-23T05:54:07.353Z,17.60
2023-02-23T05:55:07.332Z,16.30
2023-02-23T05:56:07.318Z,16.30
2023-02-23T05:57:07.303Z,17.60
2023-02-23T05:58:07.305Z,16.10
2023-02-23T05:59:07.274Z,16.00
2023-02-23T06:00:07.274Z,16.50
2023-02-23T06:01:07.278Z,17.70
2023-02-23T06:02:07.242Z,14.50
2023-02-23T06:03:07.280Z,15.30
2023-02-23T06:04:07.311Z,14.50
2023-02-23T06:05:07.214Z,15.30
2023-02-23T06:06:07.182Z,16.00
2023-02-23T06:07:07.213Z,16.30
2023-02-23T06:08:07.176Z,18.50
2023-02-23T06:09:07.152Z,19.60
2023-02-23T06:10:07.137Z,16.90
2023-02-23T06:11:07.125Z,17.40
2023-02-23T06:12:07.118Z,17.20
2023-02-23T06:13:07.120Z,22.80
2023-02-23T06:14:07.087Z,18.20
2023-02-23T06:15:07.074Z,19.10
2023-02-23T06:16:07.187Z,19.00
2023-02-23T06:17:07.110Z,21.20
2023-02-23T06:18:07.042Z,19.50
2023-02-23T06:19:07.030Z,19.70
2023-02-23T06:20:07.002Z,17.40
2023-02-23T06:21:07.024Z,19.90
2023-02-23T06:22:06.991Z,18.70
2023-02-23T06:23:06.999Z,17.10
2023-02-23T06:24:06.961Z,17.50
2023-02-23T06:25:06.968Z,18.60
2023-02-23T06:26:06.961Z,19.10
2023-02-23T06:27:06.997Z,18.90
2023-02-23T06:28:06.916Z,19.70
2023-02-23T06:29:06.994Z,18.80
2023-02-23T06:30:06.926Z,16.40
2023-02-23T06:31:07.205Z,15.50
2023-02-23T06:32:07.020Z,17.00
2023-02-23T06:33:06.877Z,15.20
2023-02-23T06:34:06.839Z,14.60
2023-02-23T06:35:06.819Z,14.30
2023-02-23T06:36:06.798Z,17.10
2023-02-23T06:37:09.138Z,17.20
2023-02-23T06:38:06.783Z,17.20
2023-02-23T06:39:06.768Z,16.50
2023-02-23T06:40:06.752Z,15.60
2023-02-23T06:41:06.743Z,16.30
2023-02-23T06:42:06.731Z,15.40
2023-02-23T06:43:06.717Z,16.30
2023-02-23T06:44:06.696Z,17.10
2023-02-23T06:45:06.703Z,16.70
2023-02-23T06:46:06.666Z,15.50
2023-02-23T06:47:06.665Z,15.70
2023-02-23T06:48:06.656Z,16.80
2023-02-23T06:49:06.639Z,16.30
2023-02-23T06:50:06.619Z,15.10
2023-02-23T06:51:06.615Z,15.10
2023-02-23T06:52:06.585Z,14.60
2023-02-23T06:53:06.597Z,16.50
2023-02-23T06:54:06.567Z,17.00
2023-02-23T06:55:06.567Z,17.60
2023-02-23T06:56:06.534Z,17.60
2023-02-23T06:57:06.524Z,17.70
2023-02-23T06:58:06.529Z,18.20
2023-02-23T06:59:06.505Z,20.60
2023-02-23T07:00:06.500Z,19.00
2023-02-23T07:01:06.478Z,19.40
2023-02-23T07:02:06.549Z,18.30
2023-02-23T07:03:06.467Z,18.40
2023-02-23T07:04:06.454Z,18.10
2023-02-23T07:05:06.421Z,17.90
2023-02-23T07:06:06.435Z,18.50
2023-02-23T07:07:06.452Z,19.30
2023-02-23T07:08:06.555Z,19.50
2023-02-23T07:09:06.414Z,19.90
2023-02-23T07:10:06.375Z,19.40
2023-02-23T07:11:06.453Z,19.40
2023-02-23T07:12:06.329Z,19.30
2023-02-23T07:13:06.338Z,20.30
2023-02-23T07:14:07.726Z,20.30
2023-02-23T07:15:06.313Z,21.80
2023-02-23T07:16:06.346Z,20.60
2023-02-23T07:17:06.269Z,19.20
2023-02-23T07:18:06.257Z,19.00
2023-02-23T07:19:06.249Z,18.20
2023-02-23T07:20:06.231Z,19.10
2023-02-23T07:21:06.226Z,19.80
2023-02-23T07:22:06.208Z,18.70
2023-02-23T07:23:06.201Z,18.10
2023-02-23T07:24:06.191Z,18.30
2023-02-23T07:25:06.167Z,18.70
2023-02-23T07:26:06.153Z,18.20
2023-02-23T07:27:06.140Z,17.50
2023-02-23T07:28:06.127Z,17.20
2023-02-23T07:29:06.125Z,16.70
2023-02-23T07:30:06.117Z,17.10
2023-02-23T07:31:06.155Z,17.30
2023-02-23T07:32:06.197Z,17.20
2023-02-23T07:33:06.066Z,18.60
2023-02-23T07:34:06.042Z,18.50
2023-02-23T07:35:06.036Z,19.40
2023-02-23T07:36:06.033Z,18.10
2023-02-23T07:37:06.029Z,17.50
2023-02-23T07:38:06.003Z,18.10
2023-02-23T07:39:06.009Z,19.20
2023-02-23T07:40:05.970Z,18.70
2023-02-23T07:41:05.975Z,20.60
2023-02-23T07:42:05.953Z,19.90
2023-02-23T07:43:05.938Z,19.80
2023-02-23T07:44:05.943Z,16.90
2023-02-23T07:45:05.929Z,17.30
2023-02-23T07:46:05.908Z,19.20
2023-02-23T07:47:05.995Z,19.30
2023-02-23T07:48:05.870Z,20.20
2023-02-23T07:49:05.865Z,20.80
2023-02-23T07:50:05.838Z,18.80
2023-02-23T07:51:05.839Z,18.00
2023-02-23T07:52:05.830Z,17.50
2023-02-23T07:53:05.829Z,18.00
2023-02-23T07:54:05.834Z,18.10
2023-02-23T07:55:05.824Z,18.10
2023-02-23T07:56:05.787Z,17.40
2023-02-23T07:57:05.764Z,16.40
2023-02-23T07:58:05.741Z,17.10
2023-02-23T07:59:05.766Z,15.50
2023-02-23T08:00:05.722Z,16.60
2023-02-23T08:01:05.763Z,16.50
2023-02-23T08:02:05.688Z,16.80
2023-02-23T08:03:05.686Z,16.70
2023-02-23T08:04:05.726Z,17.20
2023-02-23T08:05:05.650Z,17.80
2023-02-23T08:06:05.628Z,17.70
2023-02-23T08:07:05.618Z,16.20
2023-02-23T08:08:05.606Z,15.80
2023-02-23T08:09:05.713Z,16.80
2023-02-23T08:10:05.575Z,15.40
2023-02-23T08:11:05.564Z,15.20
2023-02-23T08:12:05.560Z,15.20
2023-02-23T08:13:05.586Z,14.90
2023-02-23T08:14:05.564Z,15.60
2023-02-23T08:15:05.516Z,16.20
2023-02-23T08:16:05.493Z,16.80
2023-02-23T08:17:05.601Z,17.70
2023-02-23T08:18:05.465Z,18.10
2023-02-23T08:19:05.508Z,17.80
2023-02-23T08:20:05.479Z,17.20
2023-02-23T08:21:05.469Z,16.90
2023-02-23T08:22:06.187Z,16.10
2023-02-23T08:23:05.417Z,17.90
2023-02-23T08:24:05.403Z,20.40
2023-02-23T08:25:05.397Z,18.30
2023-02-23T08:26:05.362Z,17.60
2023-02-23T08:27:05.365Z,17.70
2023-02-23T08:28:05.351Z,19.00
2023-02-23T08:29:05.369Z,18.80
2023-02-23T08:30:05.335Z,18.90
2023-02-23T08:31:05.387Z,18.60
2023-02-23T08:32:05.405Z,19.70
2023-02-23T08:33:05.273Z,20.20
2023-02-23T08:34:05.273Z,19.40
2023-02-23T08:35:05.260Z,17.20
2023-02-23T08:36:05.247Z,17.00
2023-02-23T08:37:05.264Z,16.70
2023-02-23T08:38:05.210Z,16.70
2023-02-23T08:39:05.212Z,16.90
2023-02-23T08:40:05.189Z,17.20
2023-02-23T08:41:05.196Z,17.20
2023-02-23T08:42:05.170Z,19.10
2023-02-23T08:43:05.242Z,18.60
2023-02-23T08:44:05.151Z,18.80
2023-02-23T08:45:06.326Z,19.40
2023-02-23T08:46:05.154Z,20.00
2023-02-23T08:47:05.106Z,19.10
2023-02-23T08:48:05.068Z,18.40
2023-02-23T08:49:05.096Z,18.50
2023-02-23T08:50:05.097Z,18.60
2023-02-23T08:51:05.051Z,19.40
2023-02-23T08:52:05.013Z,18.80
2023-02-23T08:53:05.021Z,19.00
2023-02-23T08:54:05.044Z,18.80
2023-02-23T08:55:05.006Z,19.80
2023-02-23T08:56:04.968Z,19.60
2023-02-23T08:57:04.954Z,19.40
2023-02-23T08:58:04.943Z,19.20
2023-02-23T08:59:04.993Z,19.10
2023-02-23T09:00:04.925Z,19.40
2023-02-23T09:01:04.998Z,20.00
2023-02-23T09:02:05.155Z,18.80
2023-02-23T09:03:04.888Z,18.30
2023-02-23T09:04:04.885Z,18.20
2023-02-23T09:05:04.888Z,17.50
2023-02-23T09:06:04.841Z,17.40
2023-02-23T09:07:04.837Z,17.60
2023-02-23T09:08:04.811Z,17.70
2023-02-23T09:09:04.811Z,17.60
2023-02-23T09:10:04.805Z,16.40
2023-02-23T09:11:04.770Z,16.60
2023-02-23T09:12:04.760Z,17.00
2023-02-23T09:13:04.776Z,17.30
2023-02-23T09:14:04.932Z,17.60
2023-02-23T09:15:04.742Z,17.50
2023-02-23T09:16:04.761Z,17.20
2023-02-23T09:17:04.711Z,18.00
2023-02-23T09:18:04.687Z,18.10
2023-02-23T09:19:04.687Z,17.70
2023-02-23T09:20:04.650Z,17.80
2023-02-23T09:21:04.761Z,17.60
2023-02-23T09:22:04.619Z,17.10
2023-02-23T09:23:04.610Z,17.10
2023-02-23T09:24:04.619Z,17.40
2023-02-23T09:25:04.590Z,17.50
2023-02-23T09:26:04.634Z,18.10
2023-02-23T09:27:04.571Z,17.80
2023-02-23T09:28:04.551Z,17.10
2023-02-23T09:29:07.612Z,17.10
2023-02-23T09:30:04.522Z,16.20
2023-02-23T09:31:04.679Z,16.50
2023-02-23T09:32:04.649Z,17.20
2023-02-23T09:33:04.488Z,16.90
2023-02-23T09:34:04.501Z,16.60
2023-02-23T09:35:04.448Z,15.80
2023-02-23T09:36:04.451Z,15.00
2023-02-23T09:37:04.440Z,16.00
2023-02-23T09:38:04.411Z,15.90
2023-02-23T09:39:04.438Z,17.10
2023-02-23T09:40:04.413Z,18.40
2023-02-23T09:41:04.373Z,17.90
2023-02-23T09:42:04.367Z,17.50
2023-02-23T09:43:04.372Z,18.50
2023-02-23T09:44:04.347Z,18.30
2023-02-23T09:45:04.352Z,17.10
2023-02-23T09:46:04.361Z,16.30
2023-02-23T09:47:04.310Z,16.30
2023-02-23T09:48:04.290Z,14.80
2023-02-23T09:49:04.267Z,17.90
2023-02-23T09:50:04.277Z,19.90
2023-02-23T09:51:04.246Z,18.70
2023-02-23T09:52:04.245Z,18.90
2023-02-23T09:53:04.872Z,21.00
2023-02-23T09:54:04.208Z,19.30
2023-02-23T09:55:04.239Z,21.60
2023-02-23T09:56:04.189Z,21.40
2023-02-23T09:57:04.176Z,21.50
2023-02-23T09:58:04.175Z,19.00
2023-02-23T09:59:04.138Z,19.20
2023-02-23T10:00:04.214Z,23.50
2023-02-23T10:01:04.117Z,21.80
2023-02-23T10:02:04.110Z,23.40
2023-02-23T10:03:04.091Z,23.40
2023-02-23T10:04:04.098Z,23.10
2023-02-23T10:05:04.120Z,22.00
2023-02-23T10:06:04.050Z,20.80
2023-02-23T10:07:04.044Z,22.30
2023-02-23T10:08:04.036Z,21.30
2023-02-23T10:09:04.022Z,22.80
2023-02-23T10:10:04.045Z,22.30
2023-02-23T10:11:03.989Z,21.80
2023-02-23T10:12:03.988Z,21.40
2023-02-23T10:13:03.958Z,20.40
2023-02-23T10:14:03.950Z,22.00
2023-02-23T10:15:03.988Z,21.90
2023-02-23T10:16:04.001Z,21.20
2023-02-23T10:17:03.928Z,23.70
2023-02-23T10:18:03.913Z,23.70
2023-02-23T10:19:03.891Z,23.40
2023-02-23T10:20:03.879Z,24.40
2023-02-23T10:21:03.854Z,23.80
2023-02-23T10:22:03.851Z,22.40
2023-02-23T10:23:03.833Z,22.00
2023-02-23T10:24:03.828Z,23.20
2023-02-23T10:25:04.064Z,22.90
2023-02-23T10:26:03.801Z,24.50
2023-02-23T10:27:03.779Z,23.40
2023-02-23T10:28:03.781Z,22.60
2023-02-23T10:29:03.750Z,23.60
2023-02-23T10:30:03.774Z,23.80
2023-02-23T10:31:03.794Z,27.30
2023-02-23T10:32:03.815Z,26.90
2023-02-23T10:33:03.709Z,26.10
2023-02-23T10:34:03.687Z,29.70
2023-02-23T10:35:03.678Z,28.60
2023-02-23T10:36:13.026Z,28.10
2023-02-23T10:37:04.670Z,29.60
2023-02-23T10:38:03.627Z,28.10
2023-02-23T10:39:03.618Z,27.90
2023-02-23T10:40:03.627Z,28.80
2023-02-23T10:41:03.597Z,29.00
2023-02-23T10:42:03.592Z,27.80
2023-02-23T10:43:03.563Z,28.40
2023-02-23T10:44:15.741Z,27.30
2023-02-23T10:45:04.547Z,27.40
2023-02-23T10:46:03.577Z,27.60
2023-02-23T10:47:03.515Z,27.60
2023-02-23T10:48:03.508Z,27.90
2023-02-23T10:49:03.492Z,28.90
2023-02-23T10:50:03.500Z,27.10
2023-02-23T10:51:03.464Z,28.10
2023-02-23T10:52:03.445Z,27.10
2023-02-23T10:53:03.433Z,26.60
2023-02-23T10:54:07.914Z,27.20
2023-02-23T10:55:03.443Z,27.90
2023-02-23T10:56:03.397Z,27.40
2023-02-23T10:57:03.391Z,27.60
2023-02-23T10:58:03.373Z,27.90
2023-02-23T10:59:03.352Z,28.40
2023-02-23T11:00:03.366Z,28.20
2023-02-23T11:01:03.346Z,30.00
2023-02-23T11:02:03.368Z,28.20
2023-02-23T11:03:03.357Z,28.90
2023-02-23T11:04:06.196Z,29.20
2023-02-23T11:05:03.361Z,28.60
2023-02-23T11:06:03.279Z,27.90
2023-02-23T11:07:03.245Z,29.40
2023-02-23T11:08:03.233Z,29.00
2023-02-23T11:09:03.385Z,27.40
2023-02-23T11:10:03.203Z,28.40
2023-02-23T11:11:03.239Z,29.70
2023-02-23T11:12:03.196Z,28.60
2023-02-23T11:13:03.178Z,28.90
2023-02-23T11:14:03.180Z,29.40
2023-02-23T11:15:03.147Z,29.50
2023-02-23T11:16:03.196Z,29.90
2023-02-23T11:17:03.117Z,30.00
2023-02-23T11:18:03.112Z,30.90
2023-02-23T11:19:03.094Z,32.30
2023-02-23T11:20:03.090Z,31.90
2023-02-23T11:21:03.070Z,31.70
2023-02-23T11:22:03.050Z,33.00
2023-02-23T11:23:14.063Z,31.80
2023-02-23T11:24:04.029Z,31.30
2023-02-23T11:25:03.011Z,31.60
2023-02-23T11:26:02.998Z,31.00
2023-02-23T11:27:02.983Z,30.90
2023-02-23T11:28:02.992Z,29.70
2023-02-23T11:29:02.950Z,32.00
2023-02-23T11:30:02.979Z,31.80
2023-02-23T11:31:03.084Z,33.20
2023-02-23T11:32:07.391Z,32.60
2023-02-23T11:33:03.927Z,29.50
2023-02-23T11:34:02.890Z,31.20
2023-02-23T11:35:02.887Z,29.60
2023-02-23T11:36:02.886Z,27.80
2023-02-23T11:37:02.870Z,31.60
2023-02-23T11:38:05.384Z,31.50
2023-02-23T11:39:02.880Z,32.00
2023-02-23T11:40:02.820Z,30.30
2023-02-23T11:41:02.820Z,32.00
2023-02-23T11:42:02.781Z,30.70
2023-02-23T11:43:02.788Z,29.30
2023-02-23T11:44:05.593Z,31.40
2023-02-23T11:45:02.772Z,30.50
2023-02-23T11:46:02.794Z,30.60
2023-02-23T11:47:02.784Z,32.00
2023-02-23T11:48:02.712Z,30.90
2023-02-23T11:49:02.693Z,30.80
2023-02-23T11:50:02.683Z,27.20
2023-02-23T11:51:02.678Z,27.60
2023-02-23T11:52:02.655Z,29.70
2023-02-23T11:53:02.665Z,30.60
2023-02-23T11:54:04.627Z,29.10
2023-02-23T11:55:02.635Z,30.90
2023-02-23T11:56:02.646Z,30.00
2023-02-23T11:57:02.739Z,29.50
2023-02-23T11:58:02.583Z,32.20
2023-02-23T11:59:02.562Z,30.00
2023-02-23T12:00:02.558Z,32.80
2023-02-23T12:01:02.563Z,29.50
2023-02-23T12:02:02.545Z,27.30
2023-02-23T12:03:02.590Z,32.60
2023-02-23T12:04:02.506Z,29.70
2023-02-23T12:05:02.529Z,30.30
2023-02-23T12:06:02.529Z,29.30
2023-02-23T12:07:02.474Z,32.40
2023-02-23T12:08:02.514Z,28.30
2023-02-23T12:09:02.432Z,31.30
2023-02-23T12:10:02.440Z,32.60
2023-02-23T12:11:02.416Z,34.60
2023-02-23T12:12:02.423Z,35.00
2023-02-23T12:13:02.384Z,32.70
2023-02-23T12:14:02.385Z,34.30
2023-02-23T12:15:02.353Z,32.80
2023-02-23T12:16:02.414Z,36.30
2023-02-23T12:17:04.257Z,33.60
2023-02-23T12:18:02.336Z,34.30
2023-02-23T12:19:02.302Z,33.30
2023-02-23T12:20:02.304Z,33.40
2023-02-23T12:21:02.283Z,35.20
2023-02-23T12:22:02.293Z,33.50
2023-02-23T12:23:02.244Z,33.40
2023-02-23T12:24:02.243Z,36.90
2023-02-23T12:25:02.240Z,36.20
2023-02-23T12:26:02.214Z,32.60
2023-02-23T12:27:02.216Z,32.40
2023-02-23T12:28:16.910Z,33.30
2023-02-23T12:29:03.172Z,34.00
2023-02-23T12:30:02.225Z,34.20
2023-02-23T12:31:02.205Z,35.90
2023-02-23T12:32:02.265Z,34.00
2023-02-23T12:33:02.133Z,34.00
2023-02-23T12:34:02.111Z,35.10
2023-02-23T12:35:02.092Z,33.50
2023-02-23T12:36:02.095Z,32.70
2023-02-23T12:37:02.085Z,32.20
2023-02-23T12:38:02.061Z,33.10
2023-02-23T12:39:02.323Z,30.90
2023-02-23T12:40:02.033Z,31.90
2023-02-23T12:41:02.021Z,35.40
2023-02-23T12:42:02.030Z,36.70
2023-02-23T12:43:01.989Z,34.20
2023-02-23T12:44:01.976Z,33.40
2023-02-23T12:45:01.967Z,34.80
2023-02-23T12:46:01.978Z,36.20
2023-02-23T12:47:01.991Z,36.50
2023-02-23T12:48:01.937Z,34.70
2023-02-23T12:49:01.907Z,33.40
2023-02-23T12:50:01.899Z,36.90
2023-02-23T12:51:01.877Z,38.50
2023-02-23T12:52:01.886Z,37.30